Terminal Aerodrome Forecast
Issued by NWS Pocatello, ID

Home | Current Version | Previous Version | Text Only | Print | Product List | Glossary On
Versions: 1 2 3 4 5 6 7 8 9 10 11 12 13 14 15 16 17 18 19 20 21 22 23 24 25
000
FTUS45 KPIH 281400 AAA
TAFIDA
TAF AMD
KIDA 281415Z 2814/2912 21010KT 2SM -RA BR OVC002
      TEMPO 2814/2816 1/2SM -RASN FG
     FM281600 22008KT P6SM OVC007
     FM290200 35004KT 4SM BR OVC003=

USA.gov is the U.S. government's official web portal to all federal, state and local government web resources and services.